Time;durP1;ratioP1;P1;durP2;ratioP2;P2;SDS_P1;SDS_P2;PMS_P1;PMS_P2;Temp;Humidity;BMP_temperature;BMP_pressure;BME280_temperature;BME280_humidity;BME280_pressure;Samples;Min_cycle;Max_cycle;Signal;HPM_P1;HPM_P2
2021/04/30 00:01:00;;;;;;;26.17;16.58;;;8.90;99.90;;;;;;3543970;40;20045;-64
2021/04/30 00:03:26;;;;;;;23.75;15.63;;;8.90;99.90;;;;;;3547918;40;20045;-64
2021/04/30 00:05:51;;;;;;;25.08;16.45;;;8.90;99.90;;;;;;3543538;40;20042;-64
2021/04/30 00:08:17;;;;;;;24.27;14.98;;;8.90;99.90;;;;;;3542617;40;20046;-65
2021/04/30 00:10:43;;;;;;;24.42;16.27;;;9.00;99.90;;;;;;3539750;40;20046;-64
2021/04/30 00:13:09;;;;;;;25.83;16.35;;;9.00;99.90;;;;;;3540378;40;20030;-64
2021/04/30 00:15:35;;;;;;;24.35;16.40;;;9.00;99.90;;;;;;3543483;40;20867;-64
2021/04/30 00:18:05;;;;;;;25.85;17.08;;;9.00;99.90;;;;;;3544338;40;20140;-64
2021/04/30 00:20:37;;;;;;;23.42;15.85;;;8.90;99.90;;;;;;3547767;40;20149;-64
2021/04/30 00:23:10;;;;;;;29.15;17.65;;;8.90;99.90;;;;;;3555833;40;20041;-64
2021/04/30 00:25:36;;;;;;;25.50;17.42;;;8.90;99.90;;;;;;3542219;40;20038;-64
2021/04/30 00:28:01;;;;;;;27.50;18.35;;;8.80;99.90;;;;;;3544254;40;20034;-64
2021/04/30 00:30:27;;;;;;;24.77;17.35;;;8.80;99.90;;;;;;3553503;40;20042;-64
2021/04/30 00:32:53;;;;;;;28.92;17.60;;;8.70;99.90;;;;;;3548750;40;20132;-64
2021/04/30 00:35:19;;;;;;;26.17;18.10;;;8.70;99.90;;;;;;3548179;40;20038;-64
2021/04/30 00:37:45;;;;;;;28.67;18.65;;;8.60;99.90;;;;;;3544996;40;20107;-64
2021/04/30 00:40:11;;;;;;;27.55;18.20;;;8.60;99.90;;;;;;3542488;40;20674;-64
2021/04/30 00:42:38;;;;;;;29.23;18.30;;;8.50;99.90;;;;;;3539244;40;20042;-64
2021/04/30 00:45:05;;;;;;;32.53;19.67;;;8.50;99.90;;;;;;3547250;40;20073;-64
2021/04/30 00:47:34;;;;;;;31.52;18.42;;;8.40;99.90;;;;;;3542249;40;20062;-64
2021/04/30 00:50:08;;;;;;;26.10;17.95;;;8.30;99.90;;;;;;3544427;40;20086;-64
2021/04/30 00:52:38;;;;;;;24.80;17.70;;;8.30;99.90;;;;;;3547039;40;20046;-64
2021/04/30 00:55:06;;;;;;;24.65;16.88;;;8.30;99.90;;;;;;3546953;40;20493;-64
2021/04/30 00:57:32;;;;;;;25.10;16.70;;;8.30;99.90;;;;;;3546915;40;20526;-64
2021/04/30 00:59:59;;;;;;;26.38;17.20;;;8.30;99.90;;;;;;3543794;40;20312;-64
2021/04/30 01:02:25;;;;;;;22.45;15.73;;;8.30;99.90;;;;;;3542124;40;20129;-64
2021/04/30 01:04:51;;;;;;;27.52;16.98;;;8.40;99.90;;;;;;3540215;40;20400;-64
2021/04/30 01:07:17;;;;;;;24.63;16.65;;;8.50;99.90;;;;;;3541598;40;20092;-64
2021/04/30 01:09:42;;;;;;;27.30;16.50;;;8.50;99.90;;;;;;3543499;40;20525;-64
2021/04/30 01:12:09;;;;;;;25.00;16.05;;;8.50;99.90;;;;;;3545015;40;20034;-64
2021/04/30 01:14:35;;;;;;;24.83;16.00;;;8.50;99.90;;;;;;3547293;40;20038;-64
2021/04/30 01:17:01;;;;;;;23.45;16.50;;;8.60;99.90;;;;;;3548165;40;20289;-64
2021/04/30 01:19:29;;;;;;;23.50;16.55;;;8.60;99.90;;;;;;3545658;40;20034;-64
2021/04/30 01:21:57;;;;;;;24.60;16.38;;;8.60;99.90;;;;;;3545898;40;20056;-68
2021/04/30 01:24:24;;;;;;;24.08;16.38;;;8.70;99.90;;;;;;3547760;40;20124;-69
2021/04/30 01:26:50;;;;;;;23.40;16.63;;;8.70;99.90;;;;;;3542989;40;20106;-69
2021/04/30 01:29:16;;;;;;;24.95;16.05;;;8.70;99.90;;;;;;3542858;40;20494;-69
2021/04/30 01:31:43;;;;;;;23.88;16.77;;;8.70;99.90;;;;;;3540613;40;20440;-69
2021/04/30 01:34:09;;;;;;;25.58;16.90;;;8.70;99.90;;;;;;3549213;40;20750;-69
2021/04/30 01:36:35;;;;;;;25.02;15.80;;;8.70;99.90;;;;;;3544127;40;20509;-69
2021/04/30 01:39:07;;;;;;;27.83;16.38;;;8.70;99.90;;;;;;3541762;40;20066;-69
2021/04/30 01:41:37;;;;;;;24.00;15.18;;;8.60;99.90;;;;;;3543461;40;20057;-69
2021/04/30 01:44:12;;;;;;;21.98;14.95;;;8.60;99.90;;;;;;3541321;40;20050;-69
2021/04/30 01:46:39;;;;;;;24.92;15.95;;;8.60;99.90;;;;;;3545121;40;20033;-69
2021/04/30 01:49:07;;;;;;;21.88;13.93;;;8.70;99.90;;;;;;3552092;40;20058;-69
2021/04/30 01:51:35;;;;;;;17.67;12.52;;;8.70;99.90;;;;;;3544681;40;20042;-68
2021/04/30 01:54:04;;;;;;;18.65;12.43;;;8.60;99.90;;;;;;3545228;40;20435;-69
2021/04/30 01:56:31;;;;;;;19.27;11.48;;;8.60;99.90;;;;;;3547153;40;20087;-69
2021/04/30 01:58:56;;;;;;;19.30;12.82;;;8.60;99.90;;;;;;3553172;40;20093;-69
2021/04/30 02:01:22;;;;;;;18.08;12.00;;;8.60;99.90;;;;;;3542944;40;20050;-69
2021/04/30 02:03:48;;;;;;;16.52;11.45;;;8.60;99.90;;;;;;3543056;40;20038;-69
2021/04/30 02:06:14;;;;;;;16.48;11.38;;;8.70;99.90;;;;;;3544158;40;20038;-69
2021/04/30 02:08:39;;;;;;;15.57;11.60;;;8.60;99.90;;;;;;3541292;40;20057;-69
2021/04/30 02:11:05;;;;;;;15.85;10.68;;;8.60;99.90;;;;;;3544619;40;20778;-69
2021/04/30 02:13:31;;;;;;;17.02;11.70;;;8.60;99.90;;;;;;3546156;40;20081;-69
2021/04/30 02:15:57;;;;;;;19.45;11.77;;;8.50;99.90;;;;;;3542516;40;20102;-69
2021/04/30 02:18:24;;;;;;;14.95;10.95;;;8.60;99.90;;;;;;3542666;40;20042;-69
2021/04/30 02:20:51;;;;;;;19.90;11.45;;;8.50;99.90;;;;;;3545218;40;20038;-70
2021/04/30 02:23:17;;;;;;;18.20;12.10;;;8.50;99.90;;;;;;3541578;40;20034;-69
2021/04/30 02:25:43;;;;;;;18.73;12.80;;;8.50;99.90;;;;;;3542838;40;20041;-69
2021/04/30 02:28:09;;;;;;;17.38;12.13;;;8.50;99.90;;;;;;3541839;40;20061;-70
2021/04/30 02:30:37;;;;;;;18.67;12.52;;;8.50;99.90;;;;;;3542967;40;20065;-69
2021/04/30 02:33:04;;;;;;;18.50;11.93;;;8.50;99.90;;;;;;3544199;40;20464;-70
2021/04/30 02:35:36;;;;;;;23.13;13.68;;;8.40;99.90;;;;;;3552019;40;20037;-69
2021/04/30 02:38:07;;;;;;;18.70;12.95;;;8.50;99.90;;;;;;3543299;40;20053;-69
2021/04/30 02:40:35;;;;;;;20.02;13.90;;;8.50;99.90;;;;;;3542097;40;20398;-69
2021/04/30 02:43:03;;;;;;;23.25;13.10;;;8.40;99.90;;;;;;3543903;40;20106;-69
2021/04/30 02:45:29;;;;;;;20.13;14.23;;;8.50;99.90;;;;;;3550532;40;20707;-69
2021/04/30 02:47:57;;;;;;;19.80;13.65;;;8.50;99.90;;;;;;3547156;40;20082;-69
2021/04/30 02:50:25;;;;;;;22.48;14.65;;;8.60;99.90;;;;;;3542984;40;20042;-69
2021/04/30 02:52:51;;;;;;;22.73;14.15;;;8.40;99.90;;;;;;3547258;40;20228;-69
2021/04/30 02:55:23;;;;;;;21.10;14.75;;;8.50;99.90;;;;;;3542117;40;20591;-69
2021/04/30 02:57:57;;;;;;;23.83;15.63;;;8.50;99.90;;;;;;3541199;40;20038;-69
2021/04/30 03:00:25;;;;;;;23.60;15.50;;;8.50;99.90;;;;;;3540369;40;20050;-69
2021/04/30 03:02:51;;;;;;;22.95;15.13;;;8.40;99.90;;;;;;3537672;40;20785;-69
2021/04/30 03:05:18;;;;;;;22.30;14.70;;;8.50;99.90;;;;;;3543022;40;20042;-69
2021/04/30 03:07:44;;;;;;;21.42;14.90;;;8.50;99.90;;;;;;3542994;40;20104;-69
2021/04/30 03:10:12;;;;;;;23.98;15.35;;;8.50;99.90;;;;;;3548644;40;20042;-69
2021/04/30 03:12:38;;;;;;;21.95;14.23;;;8.40;99.90;;;;;;3548473;40;20141;-68
2021/04/30 03:15:04;;;;;;;26.35;16.13;;;8.40;99.90;;;;;;3549908;40;20038;-68
2021/04/30 03:17:30;;;;;;;24.42;15.70;;;8.40;99.90;;;;;;3544883;40;20082;-68
2021/04/30 03:19:56;;;;;;;29.90;17.40;;;8.40;99.90;;;;;;3543641;40;20030;-67
2021/04/30 03:22:22;;;;;;;26.33;16.38;;;8.40;99.90;;;;;;3545154;40;20034;-67
2021/04/30 03:24:48;;;;;;;23.30;15.45;;;8.40;99.90;;;;;;3544751;40;20761;-68
2021/04/30 03:27:14;;;;;;;25.95;15.27;;;8.40;99.90;;;;;;3552340;40;20042;-68
2021/04/30 03:29:40;;;;;;;27.02;16.05;;;8.40;99.90;;;;;;3545151;40;20171;-67
2021/04/30 03:32:08;;;;;;;24.88;16.02;;;8.40;99.90;;;;;;3548257;40;20034;-67
2021/04/30 03:34:35;;;;;;;24.05;15.50;;;8.40;99.90;;;;;;3547931;40;20061;-67
2021/04/30 03:37:01;;;;;;;25.27;15.75;;;8.40;99.90;;;;;;3546318;40;20132;-67
2021/04/30 03:39:27;;;;;;;23.73;16.40;;;8.40;99.90;;;;;;3542727;40;20058;-67
2021/04/30 03:41:52;;;;;;;25.73;16.58;;;8.30;99.90;;;;;;3540053;40;20066;-67
2021/04/30 03:44:18;;;;;;;24.45;15.95;;;8.30;99.90;;;;;;3541845;40;20139;-67
2021/04/30 03:46:44;;;;;;;24.83;17.23;;;8.20;99.90;;;;;;3541927;40;20298;-67
2021/04/30 03:49:10;;;;;;;26.08;16.42;;;8.10;99.90;;;;;;3544992;40;20045;-68
2021/04/30 03:51:35;;;;;;;26.40;16.95;;;8.10;99.90;;;;;;3543236;40;20139;-69
2021/04/30 03:54:01;;;;;;;26.67;17.08;;;8.00;99.90;;;;;;3543328;40;20165;-68
2021/04/30 03:56:27;;;;;;;28.95;17.65;;;8.00;99.90;;;;;;3543706;40;20048;-68
2021/04/30 04:01:35;;;;;;;28.80;17.10;;;8.00;99.90;;;;;;3407422;23;20604;-69
2021/04/30 04:04:00;;;;;;;31.88;18.55;;;8.20;99.90;;;;;;3542948;40;20050;-69
2021/04/30 04:06:26;;;;;;;26.38;16.33;;;8.00;99.90;;;;;;3542480;40;20038;-69
2021/04/30 04:08:52;;;;;;;26.05;17.00;;;8.10;99.90;;;;;;3545681;40;20447;-70
2021/04/30 04:11:18;;;;;;;26.40;16.33;;;8.10;99.90;;;;;;3553788;40;20426;-69
2021/04/30 04:13:43;;;;;;;25.77;16.27;;;8.10;99.90;;;;;;3554179;40;20049;-69
2021/04/30 04:16:09;;;;;;;28.00;16.48;;;8.10;99.90;;;;;;3552848;40;20055;-71
2021/04/30 04:18:35;;;;;;;29.15;16.88;;;8.10;99.90;;;;;;3560543;40;20048;-70
2021/04/30 04:21:01;;;;;;;26.83;16.58;;;8.10;99.90;;;;;;3554776;40;20457;-69
2021/04/30 04:23:26;;;;;;;23.33;16.15;;;8.10;99.90;;;;;;3554431;40;20143;-70
2021/04/30 04:25:52;;;;;;;25.13;15.98;;;8.10;99.90;;;;;;3559241;40;20041;-71
2021/04/30 04:28:18;;;;;;;22.73;15.35;;;8.10;99.90;;;;;;3554468;40;20162;-70
2021/04/30 04:30:45;;;;;;;25.00;15.10;;;8.20;99.90;;;;;;3558440;40;20041;-69
2021/04/30 04:33:11;;;;;;;25.65;16.75;;;8.20;99.90;;;;;;3560926;40;20043;-69
2021/04/30 04:35:37;;;;;;;26.35;15.23;;;8.20;99.90;;;;;;3553503;40;20806;-69
2021/04/30 04:38:04;;;;;;;23.55;15.98;;;8.20;99.90;;;;;;3554349;40;20046;-70
2021/04/30 04:40:29;;;;;;;23.73;15.30;;;8.20;99.90;;;;;;3555057;40;20060;-69
2021/04/30 04:42:55;;;;;;;26.85;15.55;;;8.10;99.90;;;;;;3556591;40;20045;-69
2021/04/30 04:45:22;;;;;;;19.60;14.10;;;8.20;99.90;;;;;;3552379;40;20030;-70
2021/04/30 04:47:48;;;;;;;22.42;14.85;;;8.30;99.90;;;;;;3552242;40;20756;-69
2021/04/30 04:50:14;;;;;;;23.63;16.00;;;8.30;99.90;;;;;;3554086;40;20091;-69
2021/04/30 04:52:41;;;;;;;24.45;16.35;;;8.40;99.90;;;;;;3557019;40;20119;-69
2021/04/30 04:55:10;;;;;;;23.73;16.40;;;8.40;99.90;;;;;;3554261;40;20080;-69
2021/04/30 04:57:36;;;;;;;24.20;15.90;;;8.40;99.90;;;;;;3555216;40;20080;-70
2021/04/30 05:00:05;;;;;;;24.73;15.98;;;8.50;99.90;;;;;;3553107;40;20056;-69
2021/04/30 05:02:30;;;;;;;26.17;17.25;;;8.40;99.90;;;;;;3562828;40;20049;-69
2021/04/30 05:04:56;;;;;;;26.50;16.05;;;8.50;99.90;;;;;;3551801;40;20128;-69
2021/04/30 05:07:22;;;;;;;25.75;15.43;;;8.40;99.90;;;;;;3557374;40;20366;-69
2021/04/30 05:09:48;;;;;;;24.60;15.55;;;8.50;99.90;;;;;;3553731;40;20038;-69
2021/04/30 05:12:13;;;;;;;24.88;15.88;;;8.40;99.90;;;;;;3556101;40;20034;-69
2021/04/30 05:14:39;;;;;;;24.35;15.45;;;8.40;99.90;;;;;;3557116;40;20040;-69
2021/04/30 05:17:05;;;;;;;25.60;16.00;;;8.40;99.90;;;;;;3544098;40;20096;-69
2021/04/30 05:19:31;;;;;;;23.52;15.88;;;8.50;99.90;;;;;;3556195;40;20030;-69
2021/04/30 05:21:56;;;;;;;23.08;16.15;;;8.50;99.90;;;;;;3552130;40;20041;-69
2021/04/30 05:24:23;;;;;;;26.02;16.00;;;8.50;99.90;;;;;;3555602;40;20550;-69
2021/04/30 05:26:49;;;;;;;28.42;17.48;;;8.50;99.90;;;;;;3563162;40;20089;-69
2021/04/30 05:29:15;;;;;;;24.75;16.13;;;8.50;99.90;;;;;;3555468;40;20048;-69
2021/04/30 05:31:41;;;;;;;26.67;15.57;;;8.50;99.90;;;;;;3552641;40;20042;-69
2021/04/30 05:34:07;;;;;;;23.98;15.57;;;8.60;99.90;;;;;;3564509;40;20052;-69
2021/04/30 05:36:33;;;;;;;21.63;15.43;;;8.60;99.90;;;;;;3556142;40;20179;-69
2021/04/30 05:38:58;;;;;;;23.33;15.75;;;8.70;99.90;;;;;;3557136;40;20451;-67
2021/04/30 05:41:24;;;;;;;22.23;15.63;;;8.70;99.90;;;;;;3561717;40;20049;-66
2021/04/30 05:43:50;;;;;;;24.13;16.33;;;8.60;99.90;;;;;;3565160;40;20135;-68
2021/04/30 05:46:15;;;;;;;22.50;15.77;;;8.70;99.90;;;;;;3555324;40;20118;-69
2021/04/30 05:48:41;;;;;;;24.60;16.40;;;8.70;99.90;;;;;;3557249;40;20036;-69
2021/04/30 05:51:07;;;;;;;22.67;15.48;;;8.70;99.90;;;;;;3555452;40;20092;-69
2021/04/30 05:53:33;;;;;;;27.80;17.13;;;8.70;99.90;;;;;;3555156;40;20131;-69
2021/04/30 05:55:59;;;;;;;25.23;16.23;;;8.70;99.90;;;;;;3555322;40;20082;-69
2021/04/30 05:58:24;;;;;;;27.92;17.48;;;8.70;99.90;;;;;;3559850;40;20810;-70
2021/04/30 06:00:50;;;;;;;25.10;16.15;;;8.70;99.90;;;;;;3557282;40;20144;-69
2021/04/30 06:03:16;;;;;;;27.70;17.35;;;8.70;99.90;;;;;;3555021;40;20270;-69
2021/04/30 06:05:42;;;;;;;24.92;17.40;;;8.70;99.90;;;;;;3561597;40;20037;-69
2021/04/30 06:08:07;;;;;;;25.70;16.48;;;8.80;99.90;;;;;;3557327;40;20779;-69
2021/04/30 06:10:33;;;;;;;26.65;16.17;;;8.90;99.90;;;;;;3552829;40;20583;-69
2021/04/30 06:13:06;;;;;;;26.23;16.55;;;8.90;99.90;;;;;;3555358;40;20060;-69
2021/04/30 06:15:32;;;;;;;28.30;15.88;;;8.90;99.90;;;;;;3556637;40;20900;-69
2021/04/30 06:17:58;;;;;;;25.60;16.55;;;8.90;99.90;;;;;;3555885;40;20041;-69
2021/04/30 06:20:24;;;;;;;26.60;16.35;;;8.90;99.90;;;;;;3559715;40;20069;-69
2021/04/30 06:22:50;;;;;;;23.42;16.70;;;8.90;99.90;;;;;;3555391;40;20045;-69
2021/04/30 06:25:16;;;;;;;24.05;16.67;;;8.90;99.90;;;;;;3555568;40;20041;-69
2021/04/30 06:27:41;;;;;;;29.05;18.15;;;8.80;99.90;;;;;;3553547;40;20052;-70
2021/04/30 06:30:07;;;;;;;27.23;17.98;;;8.70;99.90;;;;;;3560533;40;20060;-71
2021/04/30 06:32:33;;;;;;;29.15;17.73;;;8.60;99.90;;;;;;3560573;40;20109;-69
2021/04/30 06:34:59;;;;;;;28.20;18.40;;;8.70;99.90;;;;;;3554869;40;20674;-69
2021/04/30 06:37:26;;;;;;;26.25;16.95;;;8.60;99.90;;;;;;3559296;40;20077;-69
2021/04/30 06:39:53;;;;;;;29.20;18.40;;;8.70;99.90;;;;;;3555711;40;20041;-69
2021/04/30 06:42:19;;;;;;;27.05;16.80;;;8.70;99.90;;;;;;3558126;40;20594;-69
2021/04/30 06:44:45;;;;;;;26.48;17.90;;;8.70;99.90;;;;;;3557749;40;20049;-69
2021/04/30 06:47:11;;;;;;;23.40;16.27;;;8.70;99.90;;;;;;3559085;40;20046;-62
2021/04/30 06:49:37;;;;;;;27.13;16.83;;;8.70;99.90;;;;;;3558902;40;20041;-62
2021/04/30 06:52:03;;;;;;;30.52;17.15;;;8.70;99.90;;;;;;3557384;40;20029;-62
2021/04/30 06:54:28;;;;;;;24.27;16.38;;;8.70;99.90;;;;;;3557673;40;20080;-64
2021/04/30 06:56:54;;;;;;;22.60;15.60;;;8.80;99.90;;;;;;3554117;40;20504;-63
2021/04/30 06:59:20;;;;;;;22.98;15.70;;;8.90;99.90;;;;;;3553996;40;20042;-61
2021/04/30 07:01:46;;;;;;;18.40;14.18;;;8.80;99.90;;;;;;3560337;40;20045;-61
2021/04/30 07:04:11;;;;;;;13.48;8.88;;;8.80;99.90;;;;;;3559321;40;20049;-62
2021/04/30 07:06:37;;;;;;;14.75;10.70;;;8.70;99.90;;;;;;3558405;40;20716;-61
2021/04/30 07:09:04;;;;;;;12.48;7.78;;;8.60;99.90;;;;;;3554917;40;20552;-61
2021/04/30 07:11:29;;;;;;;8.57;6.28;;;8.60;99.90;;;;;;3551617;40;20882;-62
2021/04/30 07:13:56;;;;;;;7.28;5.07;;;8.50;99.90;;;;;;3557949;40;20101;-61
2021/04/30 07:16:21;;;;;;;8.40;5.30;;;8.40;99.90;;;;;;3559987;40;20040;-62
2021/04/30 07:18:47;;;;;;;6.75;5.18;;;8.50;99.90;;;;;;3553703;40;20135;-62
2021/04/30 07:21:13;;;;;;;10.93;5.20;;;8.40;99.90;;;;;;3557159;40;20041;-62
2021/04/30 07:23:39;;;;;;;10.73;5.53;;;8.40;99.90;;;;;;3554159;40;20029;-62
2021/04/30 07:26:06;;;;;;;8.07;5.82;;;8.40;99.90;;;;;;3559515;40;20040;-62
2021/04/30 07:28:31;;;;;;;10.25;7.32;;;8.40;99.90;;;;;;3554700;40;20038;-62
2021/04/30 07:30:58;;;;;;;10.82;7.50;;;8.50;99.90;;;;;;3556583;40;20924;-62
2021/04/30 07:33:24;;;;;;;34.08;29.08;;;8.50;99.90;;;;;;3563286;40;20025;-62
2021/04/30 07:35:50;;;;;;;17.30;11.27;;;8.60;99.90;;;;;;3559411;40;20037;-62
2021/04/30 07:38:16;;;;;;;35.70;26.58;;;8.60;99.90;;;;;;3558259;40;20150;-62
2021/04/30 07:40:43;;;;;;;21.63;17.15;;;8.80;99.90;;;;;;3559195;40;20052;-62
2021/04/30 07:43:11;;;;;;;16.92;13.15;;;9.00;99.90;;;;;;3552919;40;20349;-62
2021/04/30 07:45:38;;;;;;;28.00;19.08;;;9.30;99.90;;;;;;3558037;40;20632;-62
2021/04/30 07:48:04;;;;;;;40.40;18.85;;;9.60;99.90;;;;;;3561404;40;20048;-63
2021/04/30 07:50:30;;;;;;;73.18;30.77;;;9.90;99.90;;;;;;3557791;40;20072;-63
2021/04/30 07:52:56;;;;;;;108.28;51.25;;;10.20;99.90;;;;;;3558288;40;20149;-63
2021/04/30 07:55:22;;;;;;;53.30;26.83;;;10.30;99.90;;;;;;3552872;40;20048;-62
2021/04/30 07:57:48;;;;;;;16.95;10.35;;;10.30;99.90;;;;;;3564365;40;20053;-62
2021/04/30 08:00:14;;;;;;;13.32;8.38;;;10.40;99.90;;;;;;3555689;40;20146;-62
2021/04/30 08:02:41;;;;;;;10.23;5.25;;;10.60;99.90;;;;;;3558589;40;20418;-62
2021/04/30 08:05:08;;;;;;;6.07;4.78;;;10.80;99.90;;;;;;3556683;40;20130;-63
2021/04/30 08:07:34;;;;;;;6.10;4.35;;;11.00;99.90;;;;;;3556047;40;20720;-63
2021/04/30 08:10:00;;;;;;;8.02;4.50;;;11.20;99.90;;;;;;3556256;40;20369;-63
2021/04/30 08:12:26;;;;;;;12.30;6.18;;;11.30;99.90;;;;;;3558356;40;20045;-64
2021/04/30 08:14:52;;;;;;;10.13;6.20;;;11.20;99.90;;;;;;3553751;40;20120;-63
2021/04/30 08:17:18;;;;;;;4.30;3.42;;;11.10;99.90;;;;;;3562615;40;20147;-63
2021/04/30 08:19:44;;;;;;;3.63;3.20;;;11.20;99.90;;;;;;3559571;40;20825;-62
2021/04/30 08:22:09;;;;;;;5.80;4.03;;;11.10;99.90;;;;;;3561113;40;20045;-63
2021/04/30 08:24:35;;;;;;;4.78;2.95;;;10.80;99.90;;;;;;3557370;40;20040;-63
2021/04/30 08:27:02;;;;;;;5.47;2.80;;;10.90;99.90;;;;;;3553069;40;20037;-63
2021/04/30 08:29:28;;;;;;;6.85;5.43;;;11.10;99.90;;;;;;3553922;40;20303;-65
2021/04/30 08:31:53;;;;;;;20.42;11.65;;;11.20;99.90;;;;;;3551136;40;20136;-63
2021/04/30 08:34:19;;;;;;;5.10;4.03;;;11.50;99.90;;;;;;3559131;40;20139;-63
2021/04/30 08:36:45;;;;;;;5.28;2.75;;;11.40;99.90;;;;;;3552938;40;20041;-63
2021/04/30 08:39:12;;;;;;;5.68;2.90;;;11.20;99.90;;;;;;3554479;40;20052;-63
2021/04/30 08:41:38;;;;;;;5.55;2.90;;;11.10;99.90;;;;;;3559190;40;20026;-63
2021/04/30 08:44:05;;;;;;;3.95;2.60;;;11.20;99.90;;;;;;3561349;40;20041;-65
2021/04/30 08:46:32;;;;;;;5.38;3.10;;;11.20;99.90;;;;;;3557512;40;20122;-63
2021/04/30 08:49:11;;;;;;;6.90;5.13;;;11.30;99.90;;;;;;3563333;40;20030;-64
2021/04/30 08:51:38;;;;;;;7.25;5.60;;;11.20;99.90;;;;;;3560996;40;20040;-63
2021/04/30 08:54:05;;;;;;;9.80;6.00;;;11.10;99.90;;;;;;3559884;40;20043;-63
2021/04/30 08:56:32;;;;;;;6.35;4.10;;;10.80;99.90;;;;;;3561379;40;20041;-63
2021/04/30 08:58:59;;;;;;;6.97;4.82;;;10.80;99.90;;;;;;3562159;40;20103;-63
2021/04/30 09:01:25;;;;;;;8.35;5.00;;;10.70;99.90;;;;;;3553764;40;20038;-63
2021/04/30 09:03:51;;;;;;;7.82;5.25;;;10.50;99.90;;;;;;3558336;40;20303;-63
2021/04/30 09:06:38;;;;;;;7.25;4.80;;;10.50;99.90;;;;;;3555609;40;20084;-63
2021/04/30 09:09:15;;;;;;;7.40;4.90;;;10.50;99.90;;;;;;3555736;40;20052;-64
2021/04/30 09:11:49;;;;;;;9.13;4.63;;;10.40;99.90;;;;;;3555933;40;20630;-64
2021/04/30 09:14:32;;;;;;;7.25;4.78;;;10.40;99.90;;;;;;3561657;40;20036;-64
2021/04/30 09:17:17;;;;;;;5.95;3.85;;;10.30;99.90;;;;;;3559858;40;20393;-64
2021/04/30 09:19:53;;;;;;;3.65;2.95;;;10.30;99.90;;;;;;3556808;40;20038;-62
2021/04/30 09:22:36;;;;;;;8.88;4.00;;;10.30;99.90;;;;;;3564738;40;20134;-63
2021/04/30 09:25:10;;;;;;;6.03;4.10;;;10.10;99.90;;;;;;3555413;40;20162;-64
2021/04/30 09:27:40;;;;;;;3.67;2.85;;;10.20;99.90;;;;;;3559353;40;20043;-64
2021/04/30 09:30:23;;;;;;;5.65;3.60;;;10.20;99.90;;;;;;3554962;40;20042;-64
2021/04/30 09:33:09;;;;;;;15.00;5.00;;;10.20;99.90;;;;;;3560089;40;20052;-63
2021/04/30 09:35:36;;;;;;;6.55;4.72;;;10.20;99.90;;;;;;3556492;40;20045;-64
2021/04/30 09:38:17;;;;;;;8.60;4.38;;;10.20;99.90;;;;;;3560884;40;20061;-64
2021/04/30 09:40:43;;;;;;;7.07;4.90;;;10.10;99.90;;;;;;3555411;40;20097;-64
2021/04/30 09:43:10;;;;;;;10.52;4.75;;;10.00;99.90;;;;;;3559302;40;20044;-64
2021/04/30 09:45:36;;;;;;;8.55;5.28;;;10.10;99.90;;;;;;3557042;40;20183;-64
2021/04/30 09:48:04;;;;;;;8.70;4.40;;;10.10;99.90;;;;;;3553740;40;20042;-64
2021/04/30 09:50:31;;;;;;;11.32;5.70;;;10.20;99.90;;;;;;3559097;40;20873;-64
2021/04/30 09:53:02;;;;;;;6.70;4.97;;;10.30;99.90;;;;;;3563578;40;20150;-64
2021/04/30 09:55:51;;;;;;;9.13;4.22;;;10.50;99.90;;;;;;3554244;40;20044;-64
2021/04/30 09:58:22;;;;;;;10.30;6.70;;;10.80;99.90;;;;;;3554572;40;20041;-64
2021/04/30 10:00:54;;;;;;;5.80;3.80;;;11.20;99.90;;;;;;3559916;40;20057;-60
2021/04/30 10:03:24;;;;;;;5.65;4.15;;;11.50;99.90;;;;;;3555430;40;20045;-61
2021/04/30 10:06:11;;;;;;;6.25;4.00;;;11.80;99.90;;;;;;3555226;40;20057;-64
2021/04/30 10:08:37;;;;;;;7.03;3.72;;;12.10;99.90;;;;;;3563855;40;20038;-64
2021/04/30 10:11:03;;;;;;;8.63;4.10;;;12.40;99.90;;;;;;3557276;40;20037;-64
2021/04/30 10:13:30;;;;;;;11.25;6.20;;;12.40;99.90;;;;;;3560456;40;20018;-64
2021/04/30 10:15:56;;;;;;;8.93;4.32;;;12.60;99.90;;;;;;3555859;40;20057;-64
2021/04/30 10:18:21;;;;;;;7.22;3.50;;;12.30;99.90;;;;;;3555349;40;20048;-64
2021/04/30 10:20:48;;;;;;;9.48;4.55;;;12.50;99.90;;;;;;3554057;40;21016;-62
2021/04/30 10:23:20;;;;;;;6.90;3.97;;;13.00;99.20;;;;;;3563707;40;20034;-62
2021/04/30 10:25:49;;;;;;;7.22;4.22;;;12.90;99.40;;;;;;3555756;40;20033;-62
2021/04/30 10:28:21;;;;;;;8.40;4.07;;;13.30;98.60;;;;;;3560474;40;20124;-63
2021/04/30 10:30:54;;;;;;;5.95;4.20;;;13.90;98.00;;;;;;3555119;40;20093;-62
2021/04/30 10:33:29;;;;;;;8.73;4.35;;;14.30;97.30;;;;;;3557915;40;20030;-62
2021/04/30 10:35:58;;;;;;;8.63;4.25;;;14.50;95.60;;;;;;3554735;40;20284;-62
2021/04/30 10:38:28;;;;;;;7.57;5.10;;;14.50;95.20;;;;;;3558481;40;20069;-62
2021/04/30 10:41:06;;;;;;;6.85;4.30;;;13.90;97.80;;;;;;3564521;40;20145;-62
2021/04/30 10:43:33;;;;;;;10.88;5.70;;;13.50;98.70;;;;;;3556428;40;20464;-63
2021/04/30 10:46:14;;;;;;;13.73;5.88;;;13.40;98.00;;;;;;3556912;40;20810;-64
2021/04/30 10:49:05;;;;;;;12.27;6.03;;;13.10;99.70;;;;;;3557715;40;20045;-63
2021/04/30 10:51:32;;;;;;;12.07;5.93;;;12.60;99.90;;;;;;3559837;40;20071;-65
2021/04/30 10:54:22;;;;;;;8.35;5.18;;;12.20;99.90;;;;;;3556736;40;20123;-64
2021/04/30 10:57:15;;;;;;;8.60;5.47;;;12.40;99.90;;;;;;3562249;40;20073;-63
2021/04/30 10:59:51;;;;;;;7.95;5.35;;;12.40;99.90;;;;;;3556049;40;20061;-63
2021/04/30 11:05:11;;;;;;;6.13;4.32;;;12.80;99.60;;;;;;3559993;40;20059;-62
2021/04/30 11:07:42;;;;;;;6.07;4.35;;;12.80;99.90;;;;;;3557211;40;20041;-63
2021/04/30 11:10:23;;;;;;;5.32;4.35;;;13.20;98.40;;;;;;3558572;40;20037;-63
2021/04/30 11:13:03;;;;;;;15.55;5.53;;;13.50;98.00;;;;;;3554221;40;20068;-64
2021/04/30 11:15:51;;;;;;;7.75;4.03;;;14.10;96.40;;;;;;3554288;40;20584;-63
2021/04/30 11:18:20;;;;;;;5.20;4.35;;;14.50;96.80;;;;;;3555910;40;20798;-63
2021/04/30 11:21:08;;;;;;;6.70;4.28;;;14.50;96.40;;;;;;3554098;40;20049;-63
2021/04/30 11:23:42;;;;;;;6.15;4.28;;;14.40;95.50;;;;;;3557333;40;20037;-63
2021/04/30 11:26:16;;;;;;;5.75;4.50;;;14.60;95.90;;;;;;3556078;40;20069;-63
2021/04/30 11:28:41;;;;;;;5.38;4.18;;;14.80;93.40;;;;;;3557470;40;20041;-64
2021/04/30 11:31:11;;;;;;;10.30;5.38;;;14.70;93.50;;;;;;3553003;40;20044;-64
2021/04/30 11:34:12;;;;;;;7.07;4.47;;;14.50;93.30;;;;;;3556878;40;20049;-63
2021/04/30 11:36:39;;;;;;;5.25;3.92;;;14.50;93.60;;;;;;3553596;40;20029;-63
2021/04/30 11:39:15;;;;;;;5.20;3.70;;;14.50;94.90;;;;;;3558724;40;20041;-63
2021/04/30 11:41:42;;;;;;;5.85;3.75;;;14.40;95.50;;;;;;3556143;40;20045;-63
2021/04/30 11:44:08;;;;;;;8.82;3.85;;;13.80;94.70;;;;;;3558121;40;20045;-63
2021/04/30 11:46:34;;;;;;;7.57;3.83;;;13.50;95.10;;;;;;3556616;40;20034;-64
2021/04/30 11:49:02;;;;;;;5.68;3.75;;;13.20;97.50;;;;;;3565603;40;20691;-64
2021/04/30 11:51:29;;;;;;;6.43;4.10;;;13.20;96.60;;;;;;3554611;40;20037;-64
2021/04/30 11:53:57;;;;;;;7.60;4.30;;;13.30;95.80;;;;;;3564137;40;20047;-63
2021/04/30 11:56:30;;;;;;;8.27;4.22;;;13.30;97.20;;;;;;3563369;40;20104;-64
2021/04/30 11:58:56;;;;;;;7.93;4.78;;;13.40;96.10;;;;;;3558819;40;20591;-64
2021/04/30 12:01:25;;;;;;;6.88;4.28;;;13.10;97.40;;;;;;3556526;40;20038;-64
2021/04/30 12:03:54;;;;;;;7.18;4.43;;;12.90;98.60;;;;;;3560930;40;20045;-64
2021/04/30 12:06:26;;;;;;;7.35;4.90;;;12.80;99.70;;;;;;3554031;40;20082;-63
2021/04/30 12:08:56;;;;;;;6.78;4.57;;;12.80;97.60;;;;;;3554093;40;20042;-63
2021/04/30 12:11:23;;;;;;;8.23;5.40;;;12.70;98.30;;;;;;3562681;40;20041;-63
2021/04/30 12:13:51;;;;;;;8.55;5.10;;;12.60;98.80;;;;;;3562854;40;20052;-71
2021/04/30 12:16:18;;;;;;;5.82;4.63;;;12.50;97.40;;;;;;3559467;40;20030;-71
2021/04/30 12:18:44;;;;;;;25.67;15.60;;;12.40;99.10;;;;;;3560823;40;20037;-71
2021/04/30 12:21:10;;;;;;;7.65;5.43;;;12.50;98.80;;;;;;3556839;40;20026;-71
2021/04/30 12:23:37;;;;;;;6.97;4.75;;;12.50;98.70;;;;;;3561053;40;20036;-73
2021/04/30 12:26:03;;;;;;;7.45;5.15;;;12.40;98.70;;;;;;3563738;40;20038;-71
2021/04/30 12:28:32;;;;;;;6.88;5.03;;;12.50;98.80;;;;;;3554287;40;20045;-71
2021/04/30 12:31:05;;;;;;;7.55;5.35;;;12.40;99.90;;;;;;3557490;40;20299;-71
2021/04/30 12:33:35;;;;;;;9.52;5.20;;;12.40;99.10;;;;;;3556913;40;20667;-71
2021/04/30 12:36:12;;;;;;;7.13;5.35;;;12.40;99.90;;;;;;3566964;40;20214;-71
2021/04/30 12:38:42;;;;;;;9.98;5.40;;;12.40;99.90;;;;;;3556910;40;20425;-71
2021/04/30 12:41:13;;;;;;;12.88;5.50;;;12.50;99.60;;;;;;3556397;40;20143;-71
2021/04/30 12:43:39;;;;;;;9.52;5.50;;;12.50;99.70;;;;;;3559725;40;20108;-71
2021/04/30 12:46:19;;;;;;;8.52;6.25;;;12.60;99.60;;;;;;3555941;40;20046;-71
2021/04/30 12:48:54;;;;;;;8.43;5.78;;;12.70;99.40;;;;;;3562793;40;20042;-72
2021/04/30 12:51:27;;;;;;;14.75;9.55;;;12.80;98.40;;;;;;3567605;40;20041;-71